Wilson Gdynia — 8PSA — position and weather

sailwx.info

Track history (hours):
 
Tides and Currents Weather Stations Pressure Air Temp Water Temp Dewpoint Dewpoint Depression Visibility Wind Speed Wind Dir Waves Ship Positions

Wilson Gdynia

Last reported at 2015-Jun-30 21:33 UTC. Time now 2015-Jul-06 00:58 UTC.
Position N 69°41' E 019°01'.

Length 88 m; draft 3.6 m.

Type: Cargo ship. MMSI: 314192000.

Date/timePositionNaut miles runAvg speedWind from/ knotsBaromVisibWave heightAir tempDewpointWater temp
2015-Jun-30 21:33N 69°41' E 019°01'15210.1
2015-Jun-30 06:33N 67°48' E 014°22'1010.0
2015-Jun-30 05:32N 67°38' E 014°18'1111.2
2015-Jun-30 04:33N 67°27' E 014°25'1010.0
2015-Jun-30 03:33N 67°18' E 014°16'1111.1
2015-Jun-30 02:33N 67°08' E 014°02'1210.9
2015-Jun-30 01:29N 66°60' E 013°42'17 0.5
2015-Jun-28 16:32N 66°46' E 013°17'1110.9
2015-Jun-28 15:32N 66°36' E 013°04'1110.0
2015-Jun-28 14:29N 66°26' E 012°59'1010.5
2015-Jun-28 13:33N 66°18' E 012°45'5 5.2
2015-Jun-28 12:33N 66°15' E 012°34'7 7.4
2015-Jun-28 11:32N 66°17' E 012°15'  
2015-Jun-26 02:31N 59°15' E 004°38'296 8.6
2015-Jun-24 16:08N 54°19' E 005°08'6 7.5
2015-Jun-24 15:24N 54°14' E 005°09'7 7.6
2015-Jun-24 14:29N 54°07' E 005°08'8 8.1
2015-Jun-24 13:33N 53°60' E 005°04'9 8.5
2015-Jun-24 12:33N 53°52' E 004°59'17 8.6
2015-Jun-24 10:32N 53°35' E 004°50'115 7.9
2015-Jun-23 20:04N 51°54' E 003°22'10 7.8
2015-Jun-23 18:45N 51°44' E 003°17'33 1.4
2015-Jun-22 19:21N 51°18' E 003°50'0 0.0
2015-Jun-22 18:33N 51°18' E 003°50'0 0.0
2015-Jun-22 17:33N 51°18' E 003°50'0 0.0
2015-Jun-22 16:30N 51°18' E 003°50'0 0.0
2015-Jun-22 15:33N 51°18' E 003°50'0 0.0
2015-Jun-22 14:30N 51°18' E 003°50'0 0.0
2015-Jun-22 13:33N 51°18' E 003°50'0 0.0
2015-Jun-22 12:30N 51°18' E 003°50'0 0.5
2015-Jun-22 11:33N 51°19' E 003°50'0 0.1
2015-Jun-22 10:24N 51°19' E 003°50'0 0.0
2015-Jun-22 09:24N 51°19' E 003°50'0 0.0
2015-Jun-22 08:27N 51°19' E 003°50'0 0.0
2015-Jun-22 07:18N 51°19' E 003°50'0 0.0
2015-Jun-22 06:30N 51°19' E 003°50'0 0.0
2015-Jun-22 05:33N 51°19' E 003°50'0 0.0
2015-Jun-22 04:33N 51°19' E 003°50'0 0.0
2015-Jun-22 03:33N 51°19' E 003°50'0 0.0
2015-Jun-22 02:33N 51°19' E 003°50'0 0.0
2015-Jun-22 01:33N 51°19' E 003°50'0 0.0
2015-Jun-22 00:33N 51°19' E 003°50'0 0.0
2015-Jun-21 23:33N 51°19' E 003°50'0 0.0
2015-Jun-21 22:30N 51°19' E 003°50'0 0.0
2015-Jun-21 21:27N 51°19' E 003°50'0 0.0
2015-Jun-21 20:33N 51°19' E 003°50'0 0.0
2015-Jun-21 19:30N 51°19' E 003°50'0 0.0
2015-Jun-21 18:33N 51°19' E 003°50'0 0.0
2015-Jun-21 17:33N 51°19' E 003°50'0 0.0
2015-Jun-21 16:33N 51°19' E 003°50'0 0.0
2015-Jun-21 15:30N 51°19' E 003°50'0 0.0
2015-Jun-21 14:33N 51°19' E 003°50'0 0.0
2015-Jun-21 13:27N 51°19' E 003°50'0 0.0
2015-Jun-21 12:30N 51°19' E 003°50'0 0.0
2015-Jun-21 11:30N 51°19' E 003°50'0 0.0
2015-Jun-21 10:18N 51°19' E 003°50'0 0.0
2015-Jun-21 09:30N 51°19' E 003°50'0 0.0
2015-Jun-21 08:30N 51°19' E 003°50'0 0.0
2015-Jun-21 07:33N 51°19' E 003°50'0 0.0
2015-Jun-21 06:33N 51°19' E 003°50'0 0.0
2015-Jun-21 05:33N 51°19' E 003°50'0 0.0
2015-Jun-21 04:33N 51°19' E 003°50'0 0.0
2015-Jun-21 03:33N 51°19' E 003°50'0 0.0
2015-Jun-21 02:33N 51°19' E 003°50'0 0.0
2015-Jun-21 01:33N 51°19' E 003°50'0 0.0
2015-Jun-21 00:33N 51°19' E 003°50'0 0.0
2015-Jun-20 23:33N 51°19' E 003°50'1 1.1
2015-Jun-20 22:34N 51°20' E 003°49'2 2.4
2015-Jun-20 21:34N 51°21' E 003°46'  
Track history (hours):
 
Tides and Currents Weather Stations Pressure Air Temp Water Temp Dewpoint Dewpoint Depression Visibility Wind Speed Wind Dir Waves Ship Positions

Wilson Gdynia

Last reported at 2015-Jun-30 21:33 UTC. Time now 2015-Jul-06 00:58 UTC.
Position N 69°41' E 019°01'.

Length 88 m; draft 3.6 m.

Type: Cargo ship. MMSI: 314192000.

Date/timePositionNaut miles runAvg speedWind from/ knotsBaromVisibWave heightAir tempDewpointWater temp
2015-Jun-30 21:33N 69°41' E 019°01'15210.1
2015-Jun-30 06:33N 67°48' E 014°22'1010.0
2015-Jun-30 05:32N 67°38' E 014°18'1111.2
2015-Jun-30 04:33N 67°27' E 014°25'1010.0
2015-Jun-30 03:33N 67°18' E 014°16'1111.1
2015-Jun-30 02:33N 67°08' E 014°02'1210.9
2015-Jun-30 01:29N 66°60' E 013°42'17 0.5
2015-Jun-28 16:32N 66°46' E 013°17'1110.9
2015-Jun-28 15:32N 66°36' E 013°04'1110.0
2015-Jun-28 14:29N 66°26' E 012°59'1010.5
2015-Jun-28 13:33N 66°18' E 012°45'5 5.2
2015-Jun-28 12:33N 66°15' E 012°34'7 7.4
2015-Jun-28 11:32N 66°17' E 012°15'  
2015-Jun-26 02:31N 59°15' E 004°38'296 8.6
2015-Jun-24 16:08N 54°19' E 005°08'6 7.5
2015-Jun-24 15:24N 54°14' E 005°09'7 7.6
2015-Jun-24 14:29N 54°07' E 005°08'8 8.1
2015-Jun-24 13:33N 53°60' E 005°04'9 8.5
2015-Jun-24 12:33N 53°52' E 004°59'17 8.6
2015-Jun-24 10:32N 53°35' E 004°50'115 7.9
2015-Jun-23 20:04N 51°54' E 003°22'10 7.8
2015-Jun-23 18:45N 51°44' E 003°17'33 1.4
2015-Jun-22 19:21N 51°18' E 003°50'0 0.0
2015-Jun-22 18:33N 51°18' E 003°50'0 0.0
2015-Jun-22 17:33N 51°18' E 003°50'0 0.0
2015-Jun-22 16:30N 51°18' E 003°50'0 0.0
2015-Jun-22 15:33N 51°18' E 003°50'0 0.0
2015-Jun-22 14:30N 51°18' E 003°50'0 0.0
2015-Jun-22 13:33N 51°18' E 003°50'0 0.0
2015-Jun-22 12:30N 51°18' E 003°50'0 0.5
2015-Jun-22 11:33N 51°19' E 003°50'0 0.1
2015-Jun-22 10:24N 51°19' E 003°50'0 0.0
2015-Jun-22 09:24N 51°19' E 003°50'0 0.0
2015-Jun-22 08:27N 51°19' E 003°50'0 0.0
2015-Jun-22 07:18N 51°19' E 003°50'0 0.0
2015-Jun-22 06:30N 51°19' E 003°50'0 0.0
2015-Jun-22 05:33N 51°19' E 003°50'0 0.0
2015-Jun-22 04:33N 51°19' E 003°50'0 0.0
2015-Jun-22 03:33N 51°19' E 003°50'0 0.0
2015-Jun-22 02:33N 51°19' E 003°50'0 0.0
2015-Jun-22 01:33N 51°19' E 003°50'0 0.0
2015-Jun-22 00:33N 51°19' E 003°50'0 0.0
2015-Jun-21 23:33N 51°19' E 003°50'0 0.0
2015-Jun-21 22:30N 51°19' E 003°50'0 0.0
2015-Jun-21 21:27N 51°19' E 003°50'0 0.0
2015-Jun-21 20:33N 51°19' E 003°50'0 0.0
2015-Jun-21 19:30N 51°19' E 003°50'0 0.0
2015-Jun-21 18:33N 51°19' E 003°50'0 0.0
2015-Jun-21 17:33N 51°19' E 003°50'0 0.0
2015-Jun-21 16:33N 51°19' E 003°50'0 0.0
2015-Jun-21 15:30N 51°19' E 003°50'0 0.0
2015-Jun-21 14:33N 51°19' E 003°50'0 0.0
2015-Jun-21 13:27N 51°19' E 003°50'0 0.0
2015-Jun-21 12:30N 51°19' E 003°50'0 0.0
2015-Jun-21 11:30N 51°19' E 003°50'0 0.0
2015-Jun-21 10:18N 51°19' E 003°50'0 0.0
2015-Jun-21 09:30N 51°19' E 003°50'0 0.0
2015-Jun-21 08:30N 51°19' E 003°50'0 0.0
2015-Jun-21 07:33N 51°19' E 003°50'0 0.0
2015-Jun-21 06:33N 51°19' E 003°50'0 0.0
2015-Jun-21 05:33N 51°19' E 003°50'0 0.0
2015-Jun-21 04:33N 51°19' E 003°50'0 0.0
2015-Jun-21 03:33N 51°19' E 003°50'0 0.0
2015-Jun-21 02:33N 51°19' E 003°50'0 0.0
2015-Jun-21 01:33N 51°19' E 003°50'0 0.0
2015-Jun-21 00:33N 51°19' E 003°50'0 0.0
2015-Jun-20 23:33N 51°19' E 003°50'1 1.1
2015-Jun-20 22:34N 51°20' E 003°49'2 2.4
2015-Jun-20 21:34N 51°21' E 003°46'  

Dump ship's entire track history